createdAt,value
2022-09-28T00:01:26.145Z,14.30
2022-09-28T00:03:59.838Z,14.16
2022-09-28T00:06:30.470Z,14.09
2022-09-28T00:08:58.746Z,14.17
2022-09-28T00:11:28.235Z,14.27
2022-09-28T00:14:03.649Z,14.11
2022-09-28T00:16:41.266Z,14.03
2022-09-28T00:19:08.675Z,14.21
2022-09-28T00:21:40.036Z,13.93
2022-09-28T00:24:17.814Z,14.13
2022-09-28T00:26:57.902Z,14.02
2022-09-28T00:29:39.141Z,14.09
2022-09-28T00:32:13.772Z,13.86
2022-09-28T00:34:46.701Z,14.04
2022-09-28T00:37:15.379Z,13.71
2022-09-28T00:39:43.432Z,13.97
2022-09-28T00:42:22.216Z,13.85
2022-09-28T00:44:58.089Z,13.82
2022-09-28T00:47:53.622Z,13.90
2022-09-28T00:50:36.471Z,13.63
2022-09-28T00:53:18.349Z,13.62
2022-09-28T00:55:58.851Z,13.33
2022-09-28T00:58:33.473Z,13.75
2022-09-28T01:01:01.039Z,13.76
2022-09-28T01:03:29.726Z,13.73
2022-09-28T01:06:02.273Z,13.96
2022-09-28T01:08:32.737Z,13.90
2022-09-28T01:11:00.976Z,13.81
2022-09-28T01:13:31.488Z,13.93
2022-09-28T01:17:02.712Z,14.04
2022-09-28T01:20:48.912Z,14.13
2022-09-28T01:24:31.145Z,14.04
2022-09-28T01:27:26.685Z,13.96
2022-09-28T01:30:09.229Z,14.21
2022-09-28T01:33:09.607Z,14.15
2022-09-28T01:36:06.004Z,13.99
2022-09-28T01:39:05.903Z,14.12
2022-09-28T01:41:36.527Z,14.19
2022-09-28T01:44:08.682Z,14.20
2022-09-28T01:46:48.240Z,14.08
2022-09-28T01:50:04.814Z,14.20
2022-09-28T01:52:53.704Z,14.06
2022-09-28T01:55:47.149Z,14.22
2022-09-28T01:59:02.659Z,14.14
2022-09-28T02:01:54.537Z,14.16
2022-09-28T02:04:53.895Z,14.25
2022-09-28T02:07:44.954Z,14.23
2022-09-28T02:10:22.463Z,14.19
2022-09-28T02:13:02.624Z,14.14
2022-09-28T02:16:04.352Z,14.25
2022-09-28T02:18:32.996Z,14.17
2022-09-28T02:21:19.753Z,14.27
2022-09-28T02:24:02.470Z,14.17
2022-09-28T02:26:41.996Z,14.18
2022-09-28T02:29:09.286Z,14.25
2022-09-28T02:31:36.766Z,14.21
2022-09-28T02:34:04.180Z,14.07
2022-09-28T02:36:33.026Z,14.13
2022-09-28T02:39:03.493Z,14.16
2022-09-28T02:42:07.456Z,14.10
2022-09-28T02:45:26.078Z,14.19
2022-09-28T02:49:10.398Z,14.15
2022-09-28T02:52:13.679Z,14.20
2022-09-28T02:55:17.397Z,14.16
2022-09-28T02:58:25.120Z,14.11
2022-09-28T03:02:04.064Z,14.17
2022-09-28T03:04:53.667Z,14.17
2022-09-28T03:07:44.532Z,14.30
2022-09-28T03:10:48.819Z,14.31
2022-09-28T03:13:16.745Z,14.29
2022-09-28T03:15:48.578Z,14.30
2022-09-28T03:18:16.926Z,14.19
2022-09-28T03:20:44.518Z,14.26
2022-09-28T03:23:24.314Z,14.25
2022-09-28T03:25:52.386Z,14.24
2022-09-28T03:28:21.259Z,14.32
2022-09-28T03:30:48.655Z,14.20
2022-09-28T03:33:16.030Z,14.14
2022-09-28T03:35:48.461Z,14.12
2022-09-28T03:38:18.551Z,13.90
2022-09-28T03:41:00.718Z,14.00
2022-09-28T03:43:29.994Z,13.85
2022-09-28T03:46:02.507Z,13.92
2022-09-28T03:48:35.108Z,13.91
2022-09-28T03:51:09.248Z,13.97
2022-09-28T03:53:37.336Z,13.95
2022-09-28T03:56:15.335Z,13.92
2022-09-28T03:58:43.104Z,13.97
2022-09-28T04:01:18.418Z,13.90
2022-09-28T04:03:47.012Z,13.90
2022-09-28T04:06:15.146Z,14.02
2022-09-28T04:08:43.379Z,14.06
2022-09-28T04:11:10.892Z,14.09
2022-09-28T04:13:38.224Z,13.91
2022-09-28T04:16:05.995Z,13.81
2022-09-28T04:18:33.785Z,13.91
2022-09-28T04:21:07.228Z,14.03
2022-09-28T04:23:37.413Z,14.06
2022-09-28T04:26:17.420Z,14.02
2022-09-28T04:29:16.465Z,14.08
2022-09-28T04:31:51.959Z,14.03
2022-09-28T04:34:22.665Z,14.05
2022-09-28T04:36:50.477Z,14.14
2022-09-28T04:39:19.510Z,14.14
2022-09-28T04:41:49.535Z,14.08
2022-09-28T04:44:16.958Z,14.14
2022-09-28T04:46:46.309Z,14.16
2022-09-28T04:49:13.716Z,14.11
2022-09-28T04:51:41.001Z,14.20
2022-09-28T04:54:08.265Z,14.22
2022-09-28T04:56:35.569Z,14.21
2022-09-28T04:59:02.916Z,14.07
2022-09-28T05:01:30.420Z,14.15
2022-09-28T05:03:57.858Z,14.07
2022-09-28T05:06:27.994Z,14.22
2022-09-28T05:08:57.346Z,14.23
2022-09-28T05:11:24.855Z,14.04
2022-09-28T05:13:52.137Z,14.22
2022-09-28T05:16:20.480Z,14.15
2022-09-28T05:18:48.000Z,14.19
2022-09-28T05:21:16.242Z,14.15
2022-09-28T05:23:47.716Z,14.12
2022-09-28T05:26:15.282Z,14.26
2022-09-28T05:28:43.065Z,14.26
2022-09-28T05:31:10.559Z,14.26
2022-09-28T05:33:38.347Z,14.22
2022-09-28T05:36:11.495Z,14.14
2022-09-28T05:38:38.829Z,14.18
2022-09-28T05:41:06.974Z,14.22
2022-09-28T05:43:34.661Z,14.19
2022-09-28T05:46:01.993Z,14.23
2022-09-28T05:48:30.948Z,14.32
2022-09-28T05:50:59.543Z,14.28
2022-09-28T05:53:26.901Z,14.29
2022-09-28T05:55:59.424Z,14.47
2022-09-28T05:58:28.138Z,14.29
2022-09-28T06:00:57.747Z,14.34
2022-09-28T06:03:25.854Z,14.39
2022-09-28T06:05:53.408Z,14.50
2022-09-28T06:08:21.197Z,14.28
2022-09-28T06:10:52.128Z,14.44
2022-09-28T06:13:19.986Z,14.51
2022-09-28T06:15:47.248Z,14.53
2022-09-28T06:18:15.098Z,14.52
2022-09-28T06:20:43.185Z,14.41
2022-09-28T06:23:13.368Z,14.48
2022-09-28T06:25:40.795Z,14.52
2022-09-28T06:28:14.221Z,14.51
2022-09-28T06:30:43.188Z,14.37
2022-09-28T06:33:15.012Z,14.65
2022-09-28T06:35:42.649Z,14.67
2022-09-28T06:38:10.997Z,14.64
2022-09-28T06:40:38.960Z,14.67
2022-09-28T06:43:15.047Z,14.63
2022-09-28T06:45:43.819Z,13.95
2022-09-28T06:48:11.947Z,14.06
2022-09-28T06:50:42.048Z,13.96
2022-09-28T06:53:13.722Z,13.95
2022-09-28T06:55:49.852Z,13.98
2022-09-28T06:58:20.863Z,13.85
2022-09-28T07:00:51.768Z,13.55
2022-09-28T07:03:22.936Z,13.82
2022-09-28T07:05:56.175Z,13.81
2022-09-28T07:08:26.048Z,13.78
2022-09-28T07:10:57.666Z,13.67
2022-09-28T07:16:16.643Z,13.85
2022-09-28T07:18:43.936Z,13.90
2022-09-28T07:21:24.349Z,13.71
2022-09-28T07:23:55.812Z,13.75
2022-09-28T07:26:24.563Z,13.70
2022-09-28T07:28:52.643Z,14.05
2022-09-28T07:31:20.171Z,13.83
2022-09-28T07:33:51.335Z,13.62
2022-09-28T07:36:20.960Z,13.73
2022-09-28T07:38:48.338Z,13.75
2022-09-28T07:41:21.544Z,14.06
2022-09-28T07:43:49.846Z,13.94
2022-09-28T07:46:17.672Z,13.65
2022-09-28T07:48:45.923Z,13.60
2022-09-28T07:51:14.513Z,13.88
2022-09-28T07:53:41.811Z,13.82
2022-09-28T07:56:09.896Z,13.79
2022-09-28T07:58:39.529Z,13.78
2022-09-28T08:01:14.885Z,13.82
2022-09-28T08:03:47.123Z,13.59
2022-09-28T08:06:18.435Z,13.48
2022-09-28T08:08:45.808Z,13.42
2022-09-28T08:11:17.814Z,13.37
2022-09-28T08:13:46.481Z,13.62
2022-09-28T08:16:13.938Z,13.44
2022-09-28T08:18:42.129Z,13.41
2022-09-28T08:21:29.407Z,13.61
2022-09-28T08:23:57.016Z,13.54
2022-09-28T08:26:24.634Z,13.49
2022-09-28T08:28:51.926Z,13.48
2022-09-28T08:31:19.295Z,13.40
2022-09-28T08:33:46.600Z,13.68
2022-09-28T08:36:14.047Z,13.60
2022-09-28T08:38:43.028Z,13.84
2022-09-28T08:41:43.670Z,13.86
2022-09-28T08:44:24.740Z,13.74
2022-09-28T08:47:06.257Z,13.67
2022-09-28T08:49:47.820Z,13.83
2022-09-28T08:52:28.241Z,13.51
2022-09-28T08:55:32.924Z,13.58
2022-09-28T08:58:18.360Z,13.87
2022-09-28T09:00:54.346Z,13.94
2022-09-28T09:03:42.380Z,13.95
2022-09-28T09:06:58.681Z,14.02
2022-09-28T09:10:18.480Z,13.78
2022-09-28T09:13:25.638Z,13.92
2022-09-28T09:16:51.190Z,13.75
2022-09-28T09:19:59.561Z,14.28
2022-09-28T09:23:10.523Z,14.09
2022-09-28T09:25:55.106Z,13.99
2022-09-28T09:29:06.049Z,14.11
2022-09-28T09:32:24.947Z,14.14
2022-09-28T09:35:30.867Z,14.19
2022-09-28T09:38:58.232Z,14.28
2022-09-28T09:42:23.596Z,14.38
2022-09-28T09:45:43.382Z,14.39
2022-09-28T09:48:31.055Z,14.32
2022-09-28T09:51:12.951Z,14.41
2022-09-28T09:54:00.048Z,14.45
2022-09-28T09:57:13.041Z,14.42
2022-09-28T09:59:44.516Z,14.19
2022-09-28T10:02:34.882Z,14.20
2022-09-28T10:05:23.984Z,13.85
2022-09-28T10:08:09.232Z,14.26
2022-09-28T10:11:13.124Z,14.14
2022-09-28T10:13:44.146Z,14.26
2022-09-28T10:16:11.581Z,14.21
2022-09-28T10:18:39.084Z,13.87
2022-09-28T10:21:06.930Z,13.89
2022-09-28T10:23:37.828Z,14.02
2022-09-28T10:26:35.655Z,13.76
2022-09-28T10:29:15.810Z,13.88
2022-09-28T10:31:55.669Z,14.07
2022-09-28T10:34:30.813Z,14.38
2022-09-28T10:37:11.079Z,14.07
2022-09-28T10:39:53.891Z,13.89
2022-09-28T10:42:33.553Z,13.78
2022-09-28T10:45:22.203Z,13.94
2022-09-28T10:47:51.319Z,14.12
2022-09-28T10:50:27.987Z,13.74
2022-09-28T10:53:24.427Z,14.12
2022-09-28T10:56:18.781Z,13.63
2022-09-28T10:58:46.566Z,13.75
2022-09-28T11:01:34.459Z,13.41
2022-09-28T11:04:10.453Z,13.56
2022-09-28T11:06:40.355Z,13.60
2022-09-28T11:09:33.244Z,13.05
2022-09-28T11:12:05.967Z,13.17
2022-09-28T11:14:42.855Z,12.77
2022-09-28T11:17:41.949Z,12.98
2022-09-28T11:20:28.605Z,12.75
2022-09-28T11:23:30.051Z,12.90
2022-09-28T11:26:08.690Z,13.33
2022-09-28T11:28:39.036Z,13.02
2022-09-28T11:31:08.155Z,13.09
2022-09-28T11:33:46.745Z,13.13
2022-09-28T11:36:13.822Z,13.03
2022-09-28T11:38:48.540Z,12.84
2022-09-28T11:42:16.106Z,13.04
2022-09-28T11:44:46.936Z,13.07
2022-09-28T11:47:51.374Z,13.56
2022-09-28T11:50:51.416Z,13.43
2022-09-28T11:53:30.245Z,13.27
2022-09-28T11:56:40.037Z,13.21
2022-09-28T11:59:42.525Z,13.18
2022-09-28T12:02:44.120Z,13.47
2022-09-28T12:05:57.126Z,13.39
2022-09-28T12:08:54.513Z,13.38
2022-09-28T12:11:38.597Z,13.47
2022-09-28T12:14:38.192Z,13.39
2022-09-28T12:17:32.401Z,13.53
2022-09-28T12:20:29.479Z,13.55
2022-09-28T12:22:59.305Z,13.72
2022-09-28T12:25:36.855Z,13.75
2022-09-28T12:28:32.281Z,13.80
2022-09-28T12:31:24.613Z,13.87
2022-09-28T12:33:53.384Z,13.79
2022-09-28T12:37:18.729Z,13.83
2022-09-28T12:40:03.713Z,13.95
2022-09-28T12:43:40.594Z,14.00
2022-09-28T12:46:28.770Z,14.02
2022-09-28T12:53:16.770Z,13.92
2022-09-28T12:56:18.106Z,13.95
2022-09-28T12:59:30.889Z,13.91
2022-09-28T13:02:43.359Z,13.92
2022-09-28T13:05:57.760Z,13.75
2022-09-28T13:08:49.644Z,14.05
2022-09-28T13:12:13.353Z,13.81
2022-09-28T13:15:29.232Z,13.89
2022-09-28T13:18:12.460Z,14.04
2022-09-28T13:21:13.443Z,13.86
2022-09-28T13:23:49.420Z,13.80
2022-09-28T13:26:37.871Z,13.91
2022-09-28T13:29:19.220Z,13.90
2022-09-28T13:31:58.982Z,13.91
2022-09-28T13:34:33.378Z,13.92
2022-09-28T13:37:21.776Z,13.74
2022-09-28T13:39:56.334Z,14.01
2022-09-28T13:43:06.757Z,13.83
2022-09-28T13:45:54.701Z,13.88
2022-09-28T13:49:11.273Z,13.93
2022-09-28T13:52:12.559Z,14.02
2022-09-28T13:55:09.813Z,13.96
2022-09-28T13:58:29.841Z,14.09
2022-09-28T14:01:17.627Z,13.97
2022-09-28T14:04:21.927Z,13.97
2022-09-28T14:07:36.163Z,13.85
2022-09-28T14:10:51.946Z,13.90
2022-09-28T14:13:41.288Z,14.05
2022-09-28T14:16:26.789Z,14.08
2022-09-28T14:19:18.189Z,14.08
2022-09-28T14:22:48.986Z,14.23
2022-09-28T14:25:32.100Z,14.18
2022-09-28T14:28:56.217Z,14.26
2022-09-28T14:31:29.344Z,14.22
2022-09-28T14:34:02.028Z,13.77
2022-09-28T14:37:06.713Z,13.54
2022-09-28T14:39:55.685Z,13.94
2022-09-28T14:42:25.945Z,14.18
2022-09-28T14:45:07.871Z,14.11
2022-09-28T14:47:44.863Z,14.15
2022-09-28T14:50:28.170Z,14.09
2022-09-28T14:53:05.921Z,13.92
2022-09-28T14:56:00.512Z,14.00
2022-09-28T14:58:29.889Z,13.51
2022-09-28T15:01:07.468Z,13.41
2022-09-28T15:03:39.388Z,13.50
2022-09-28T15:06:06.901Z,13.75
2022-09-28T15:08:39.877Z,13.67
2022-09-28T15:11:19.903Z,13.84
2022-09-28T15:13:47.264Z,13.75
2022-09-28T15:16:17.541Z,13.83
2022-09-28T15:20:23.781Z,13.68
2022-09-28T15:22:59.019Z,13.79
2022-09-28T15:25:33.190Z,13.74
2022-09-28T15:28:22.142Z,13.91
2022-09-28T15:30:50.117Z,13.85
2022-09-28T15:33:53.383Z,13.95
2022-09-28T15:36:28.672Z,13.99
2022-09-28T15:39:34.784Z,13.89
2022-09-28T15:42:03.340Z,13.84
2022-09-28T15:44:36.546Z,13.87
2022-09-28T15:47:32.230Z,13.85
2022-09-28T15:50:21.315Z,13.79
2022-09-28T15:53:05.071Z,13.84
2022-09-28T15:55:42.383Z,13.91
2022-09-28T15:58:13.352Z,14.00
2022-09-28T16:00:40.717Z,13.82
2022-09-28T16:03:08.284Z,13.78
2022-09-28T16:05:58.955Z,13.86
2022-09-28T16:08:46.075Z,13.89
2022-09-28T16:11:31.809Z,13.87
2022-09-28T16:14:18.290Z,13.92
2022-09-28T16:16:51.227Z,13.78
2022-09-28T16:19:39.619Z,13.94
2022-09-28T16:22:17.926Z,13.82
2022-09-28T16:24:57.866Z,13.78
2022-09-28T16:27:45.941Z,13.71
2022-09-28T16:30:32.338Z,13.57
2022-09-28T16:33:29.192Z,13.64
2022-09-28T16:36:01.792Z,13.68
2022-09-28T16:38:29.128Z,13.84
2022-09-28T16:40:59.397Z,13.89
2022-09-28T16:43:31.188Z,13.65
2022-09-28T16:46:13.236Z,13.52
2022-09-28T16:48:50.256Z,13.68
2022-09-28T16:51:22.473Z,13.62
2022-09-28T16:54:08.365Z,13.65
2022-09-28T16:56:37.016Z,13.58
2022-09-28T16:59:04.725Z,13.69
2022-09-28T17:01:32.954Z,13.85
2022-09-28T17:04:00.304Z,13.72
2022-09-28T17:06:28.548Z,13.84
2022-09-28T17:08:56.672Z,13.76
2022-09-28T17:11:25.226Z,13.79
2022-09-28T17:13:56.768Z,13.52
2022-09-28T17:19:25.853Z,13.77
2022-09-28T17:21:53.548Z,13.80
2022-09-28T17:24:21.253Z,13.70
2022-09-28T17:26:51.809Z,13.77
2022-09-28T17:29:19.861Z,13.61
2022-09-28T17:31:48.123Z,13.73
2022-09-28T17:34:17.829Z,13.58
2022-09-28T17:36:45.584Z,13.71
2022-09-28T17:39:18.548Z,13.57
2022-09-28T17:41:46.472Z,13.56
2022-09-28T17:44:16.809Z,13.47
2022-09-28T17:46:49.438Z,13.47
2022-09-28T17:49:17.461Z,13.36
2022-09-28T17:51:44.820Z,13.17
2022-09-28T17:54:14.381Z,13.36
2022-09-28T17:56:42.616Z,13.44
2022-09-28T17:59:17.012Z,13.48
2022-09-28T18:01:44.457Z,13.45
2022-09-28T18:04:27.668Z,13.38
2022-09-28T18:07:04.259Z,13.47
2022-09-28T18:09:31.557Z,13.47
2022-09-28T18:12:04.092Z,13.35
2022-09-28T18:14:31.452Z,13.38
2022-09-28T18:16:58.747Z,13.34
2022-09-28T18:19:31.686Z,13.50
2022-09-28T18:21:59.608Z,13.47
2022-09-28T18:24:26.904Z,13.42
2022-09-28T18:26:54.208Z,13.55
2022-09-28T18:29:21.461Z,13.54
2022-09-28T18:31:48.856Z,13.43
2022-09-28T18:34:16.267Z,13.55
2022-09-28T18:36:43.597Z,13.50
2022-09-28T18:39:11.636Z,13.56
2022-09-28T18:41:38.950Z,13.54
2022-09-28T18:44:06.273Z,13.52
2022-09-28T18:46:36.595Z,13.40
2022-09-28T18:49:07.113Z,13.47
2022-09-28T18:51:34.417Z,13.58
2022-09-28T18:54:07.136Z,13.39
2022-09-28T18:56:37.291Z,13.45
2022-09-28T18:59:12.118Z,13.47
2022-09-28T19:01:41.802Z,13.55
2022-09-28T19:04:11.738Z,13.31
2022-09-28T19:06:42.769Z,13.47
2022-09-28T19:09:12.355Z,13.43
2022-09-28T19:11:39.786Z,13.45
2022-09-28T19:14:10.869Z,13.43
2022-09-28T19:16:38.171Z,13.43
2022-09-28T19:19:06.533Z,13.50
2022-09-28T19:21:33.876Z,13.38
2022-09-28T19:24:03.907Z,13.27
2022-09-28T19:26:33.071Z,13.32
2022-09-28T19:29:02.105Z,13.22
2022-09-28T19:31:30.983Z,13.28
2022-09-28T19:33:58.760Z,13.31
2022-09-28T19:36:28.574Z,13.32
2022-09-28T19:39:04.400Z,13.28
2022-09-28T19:41:44.152Z,13.30
2022-09-28T19:44:30.811Z,13.37
2022-09-28T19:47:08.829Z,13.43
2022-09-28T19:49:40.692Z,13.32
2022-09-28T19:52:17.426Z,13.19
2022-09-28T19:54:59.135Z,13.32
2022-09-28T19:57:32.591Z,13.34
2022-09-28T20:00:03.093Z,13.36
2022-09-28T20:02:31.086Z,13.30
2022-09-28T20:04:58.384Z,13.25
2022-09-28T20:07:25.737Z,13.38
2022-09-28T20:09:54.980Z,13.28
2022-09-28T20:12:22.417Z,13.33
2022-09-28T20:14:49.700Z,13.36
2022-09-28T20:17:17.043Z,13.17
2022-09-28T20:19:44.308Z,13.23
2022-09-28T20:22:12.181Z,13.28
2022-09-28T20:24:39.535Z,13.26
2022-09-28T20:27:06.948Z,13.37
2022-09-28T20:29:34.712Z,13.24
2022-09-28T20:32:03.969Z,13.21
2022-09-28T20:34:33.431Z,13.23
2022-09-28T20:37:00.784Z,13.14
2022-09-28T20:39:28.060Z,13.19
2022-09-28T20:41:56.249Z,13.31
2022-09-28T20:44:23.567Z,13.19
2022-09-28T20:46:52.263Z,13.29
2022-09-28T20:49:19.637Z,13.25
2022-09-28T20:51:47.052Z,13.19
2022-09-28T20:54:14.439Z,13.23
2022-09-28T20:56:41.852Z,13.12
2022-09-28T20:59:12.062Z,13.17
2022-09-28T21:01:40.588Z,13.13
2022-09-28T21:04:10.449Z,13.14
2022-09-28T21:06:41.912Z,13.15
2022-09-28T21:09:11.457Z,13.17
2022-09-28T21:11:41.746Z,13.13
2022-09-28T21:14:10.336Z,13.02
2022-09-28T21:16:38.225Z,13.05
2022-09-28T21:19:05.836Z,13.01
2022-09-28T21:21:33.205Z,13.09
2022-09-28T21:24:00.713Z,12.95
2022-09-28T21:26:31.227Z,12.96
2022-09-28T21:29:05.492Z,13.12
2022-09-28T21:31:45.664Z,13.06
2022-09-28T21:34:21.252Z,13.02
2022-09-28T21:36:54.391Z,12.91
2022-09-28T21:39:22.157Z,13.05
2022-09-28T21:41:49.515Z,12.93
2022-09-28T21:44:17.861Z,12.94
2022-09-28T21:46:45.183Z,12.92
2022-09-28T21:49:14.200Z,12.88
2022-09-28T21:51:41.607Z,12.94
2022-09-28T21:54:08.935Z,12.98
2022-09-28T21:56:36.220Z,13.00
2022-09-28T21:59:04.732Z,13.04
2022-09-28T22:01:32.260Z,12.88
2022-09-28T22:03:59.601Z,12.93
2022-09-28T22:06:28.248Z,12.96
2022-09-28T22:08:57.418Z,12.95
2022-09-28T22:11:28.748Z,13.08
2022-09-28T22:14:00.656Z,13.14
2022-09-28T22:16:31.164Z,13.05
2022-09-28T22:18:59.870Z,13.05
2022-09-28T22:21:34.876Z,13.16
2022-09-28T22:24:07.101Z,13.13
2022-09-28T22:26:37.293Z,13.03
2022-09-28T22:29:09.196Z,13.03
2022-09-28T22:31:40.805Z,13.06
2022-09-28T22:34:09.457Z,13.12
2022-09-28T22:36:36.952Z,13.13
2022-09-28T22:39:05.899Z,13.06
2022-09-28T22:41:33.505Z,13.11
2022-09-28T22:44:01.343Z,13.11
2022-09-28T22:46:32.497Z,13.10
2022-09-28T22:49:00.791Z,13.01
2022-09-28T22:51:30.677Z,13.07
2022-09-28T22:53:58.437Z,13.02
2022-09-28T22:56:25.853Z,13.05
2022-09-28T22:58:53.128Z,12.96
2022-09-28T23:01:30.099Z,13.00
2022-09-28T23:03:58.376Z,12.90
2022-09-28T23:06:30.732Z,13.00
2022-09-28T23:08:58.730Z,13.08
2022-09-28T23:11:27.837Z,13.00
2022-09-28T23:13:59.061Z,13.05
2022-09-28T23:16:28.048Z,13.13
2022-09-28T23:18:56.303Z,13.07
2022-09-28T23:21:27.713Z,12.91
2022-09-28T23:24:03.276Z,13.05
2022-09-28T23:26:35.137Z,12.98
2022-09-28T23:29:02.885Z,13.05
2022-09-28T23:31:33.266Z,13.01
2022-09-28T23:34:06.553Z,13.05
2022-09-28T23:36:34.899Z,12.93
2022-09-28T23:39:03.200Z,13.01
2022-09-28T23:41:31.657Z,13.01
2022-09-28T23:43:58.960Z,12.98
2022-09-28T23:46:26.310Z,12.99
2022-09-28T23:48:53.760Z,13.08
2022-09-28T23:51:21.272Z,13.15
2022-09-28T23:53:48.606Z,13.00
2022-09-28T23:56:16.764Z,12.97
2022-09-28T23:58:44.103Z,13.02
